createdAt,value
2023-01-07T00:01:56.017Z,101771.75
2023-01-07T00:04:23.841Z,101763.84
2023-01-07T00:06:52.928Z,101778.88
2023-01-07T00:09:20.594Z,101771.47
2023-01-07T00:11:48.278Z,101756.34
2023-01-07T00:14:15.936Z,101764.78
2023-01-07T00:16:43.747Z,101765.56
2023-01-07T00:19:15.357Z,101756.09
2023-01-07T00:21:43.344Z,101763.94
2023-01-07T00:24:11.776Z,101761.97
2023-01-07T00:26:40.690Z,101766.97
2023-01-07T00:29:08.880Z,101759.03
2023-01-07T00:31:38.688Z,101752.13
2023-01-07T00:34:07.308Z,101762.44
2023-01-07T00:36:39.583Z,101769.13
2023-01-07T00:39:16.780Z,101757.25
2023-01-07T00:42:04.035Z,101750.31
2023-01-07T00:44:32.041Z,101746.53
2023-01-07T00:47:00.396Z,101751.84
2023-01-07T00:49:28.629Z,101741.78
2023-01-07T00:51:56.201Z,101741.97
2023-01-07T00:54:25.611Z,101737.88
2023-01-07T00:56:53.408Z,101739.34
2023-01-07T00:59:21.133Z,101738.47
2023-01-07T01:01:48.963Z,101740.66
2023-01-07T01:04:17.094Z,101739.00
2023-01-07T01:06:44.774Z,101735.38
2023-01-07T01:09:13.101Z,101738.53
2023-01-07T01:11:41.971Z,101736.59
2023-01-07T01:14:11.419Z,101741.34
2023-01-07T01:16:39.315Z,101741.22
2023-01-07T01:19:07.394Z,101736.09
2023-01-07T01:21:35.034Z,101728.22
2023-01-07T01:24:02.592Z,101724.25
2023-01-07T01:26:30.254Z,101726.25
2023-01-07T01:28:57.950Z,101734.78
2023-01-07T01:31:25.962Z,101736.72
2023-01-07T01:33:59.943Z,101738.47
2023-01-07T01:36:27.675Z,101730.00
2023-01-07T01:38:58.151Z,101747.69
2023-01-07T01:41:28.527Z,101740.63
2023-01-07T01:43:58.352Z,101750.63
2023-01-07T01:46:35.401Z,101738.53
2023-01-07T01:49:06.102Z,101742.97
2023-01-07T01:51:39.614Z,101736.66
2023-01-07T01:54:11.976Z,101737.31
2023-01-07T01:56:46.082Z,101736.34
2023-01-07T01:59:20.827Z,101736.59
2023-01-07T02:01:48.992Z,101729.31
2023-01-07T02:04:21.216Z,101739.56
2023-01-07T02:06:58.312Z,101727.25
2023-01-07T02:09:27.980Z,101732.91
2023-01-07T02:12:32.916Z,101739.47
2023-01-07T02:15:11.358Z,101731.78
2023-01-07T02:17:55.843Z,101734.53
2023-01-07T02:20:35.193Z,101731.56
2023-01-07T02:23:21.559Z,101728.91
2023-01-07T02:26:03.043Z,101733.44
2023-01-07T02:28:55.188Z,101735.09
2023-01-07T02:32:00.348Z,101726.13
2023-01-07T02:34:52.377Z,101724.97
2023-01-07T02:37:23.197Z,101726.09
2023-01-07T02:40:06.147Z,101718.31
2023-01-07T02:43:10.714Z,101714.78
2023-01-07T02:45:58.388Z,101715.91
2023-01-07T02:48:26.580Z,101710.94
2023-01-07T02:50:54.268Z,101709.81
2023-01-07T02:53:22.284Z,101707.16
2023-01-07T02:56:32.085Z,101711.50
2023-01-07T02:59:08.762Z,101708.97
2023-01-07T03:01:55.910Z,101699.00
2023-01-07T03:04:38.742Z,101708.59
2023-01-07T03:07:36.256Z,101705.72
2023-01-07T03:10:29.423Z,101697.84
2023-01-07T03:13:18.373Z,101696.56
2023-01-07T03:15:51.295Z,101692.25
2023-01-07T03:18:27.384Z,101702.69
2023-01-07T03:21:06.129Z,101702.63
2023-01-07T03:23:39.086Z,101693.06
2023-01-07T03:26:07.954Z,101693.63
2023-01-07T03:28:40.762Z,101695.91
2023-01-07T03:31:15.701Z,101696.72
2023-01-07T03:34:01.754Z,101689.44
2023-01-07T03:36:36.488Z,101688.09
2023-01-07T03:39:06.843Z,101696.78
2023-01-07T03:41:53.244Z,101707.25
2023-01-07T03:44:20.874Z,101694.41
2023-01-07T03:46:49.268Z,101687.69
2023-01-07T03:49:16.827Z,101691.13
2023-01-07T03:51:46.115Z,101685.97
2023-01-07T03:54:14.070Z,101682.53
2023-01-07T03:56:41.806Z,101691.22
2023-01-07T03:59:09.559Z,101688.97
2023-01-07T04:01:37.438Z,101680.41
2023-01-07T04:04:05.441Z,101672.00
2023-01-07T04:06:33.073Z,101678.16
2023-01-07T04:09:00.676Z,101675.84
2023-01-07T04:11:28.745Z,101670.94
2023-01-07T04:14:00.759Z,101671.25
2023-01-07T04:16:30.094Z,101678.25
2023-01-07T04:19:05.586Z,101681.66
2023-01-07T04:21:33.288Z,101679.03
2023-01-07T04:24:00.945Z,101674.34
2023-01-07T04:26:28.738Z,101672.31
2023-01-07T04:28:56.441Z,101677.91
2023-01-07T04:31:24.212Z,101681.63
2023-01-07T04:33:51.896Z,101671.72
2023-01-07T04:36:19.637Z,101671.28
2023-01-07T04:38:49.123Z,101670.75
2023-01-07T04:41:16.795Z,101670.53
2023-01-07T04:43:46.982Z,101674.09
2023-01-07T04:46:14.625Z,101671.56
2023-01-07T04:48:43.330Z,101675.06
2023-01-07T04:51:11.247Z,101673.47
2023-01-07T04:53:39.682Z,101674.63
2023-01-07T04:56:08.301Z,101671.91
2023-01-07T04:58:36.151Z,101678.63
2023-01-07T05:01:04.479Z,101677.44
2023-01-07T05:03:37.331Z,101673.34
2023-01-07T05:06:06.524Z,101673.06
2023-01-07T05:08:34.566Z,101676.91
2023-01-07T05:11:04.126Z,101674.34
2023-01-07T05:13:35.333Z,101672.78
2023-01-07T05:16:04.970Z,101684.16
2023-01-07T05:18:32.773Z,101690.00
2023-01-07T05:21:00.331Z,101683.94
2023-01-07T05:23:29.063Z,101676.88
2023-01-07T05:25:58.200Z,101685.81
2023-01-07T05:28:25.812Z,101674.25
2023-01-07T05:30:54.059Z,101682.13
2023-01-07T05:33:21.815Z,101685.91
2023-01-07T05:35:49.551Z,101683.34
2023-01-07T05:38:18.550Z,101676.97
2023-01-07T05:40:50.012Z,101681.53
2023-01-07T05:43:21.672Z,101691.03
2023-01-07T05:45:49.908Z,101678.69
2023-01-07T05:48:17.768Z,101680.84
2023-01-07T05:50:45.391Z,101679.25
2023-01-07T05:53:13.440Z,101678.25
2023-01-07T05:55:41.142Z,101677.97
2023-01-07T05:58:09.193Z,101683.16
2023-01-07T06:00:37.251Z,101682.94
2023-01-07T06:03:05.889Z,101689.31
2023-01-07T06:05:33.467Z,101681.53
2023-01-07T06:08:01.053Z,101681.47
2023-01-07T06:10:28.588Z,101681.25
2023-01-07T06:12:56.198Z,101686.72
2023-01-07T06:15:24.064Z,101686.78
2023-01-07T06:17:51.616Z,101688.41
2023-01-07T06:20:21.872Z,101696.16
2023-01-07T06:22:49.471Z,101681.25
2023-01-07T06:25:19.416Z,101682.41
2023-01-07T06:27:46.919Z,101678.03
2023-01-07T06:30:14.631Z,101680.72
2023-01-07T06:32:46.728Z,101671.16
2023-01-07T06:35:14.513Z,101682.72
2023-01-07T06:37:42.125Z,101688.53
2023-01-07T06:40:09.953Z,101678.84
2023-01-07T06:42:37.627Z,101676.81
2023-01-07T06:45:05.701Z,101680.44
2023-01-07T06:47:33.212Z,101690.59
2023-01-07T06:50:00.805Z,101680.13
2023-01-07T06:52:28.376Z,101682.94
2023-01-07T06:54:55.959Z,101677.16
2023-01-07T06:57:23.517Z,101680.66
2023-01-07T06:59:51.040Z,101676.94
2023-01-07T07:02:22.036Z,101677.75
2023-01-07T07:04:50.256Z,101687.22
2023-01-07T07:07:18.507Z,101684.91
2023-01-07T07:09:47.223Z,101684.63
2023-01-07T07:12:14.879Z,101689.56
2023-01-07T07:14:42.666Z,101686.25
2023-01-07T07:17:10.307Z,101684.19
2023-01-07T07:19:38.010Z,101696.44
2023-01-07T07:22:05.571Z,101699.72
2023-01-07T07:24:33.240Z,101697.94
2023-01-07T07:27:00.842Z,101691.78
2023-01-07T07:29:31.267Z,101696.25
2023-01-07T07:31:59.085Z,101690.91
2023-01-07T07:34:26.792Z,101680.88
2023-01-07T07:36:54.398Z,101685.16
2023-01-07T07:39:22.054Z,101691.09
2023-01-07T07:41:49.629Z,101683.28
2023-01-07T07:44:18.945Z,101683.28
2023-01-07T07:46:46.665Z,101688.50
2023-01-07T07:49:14.508Z,101685.13
2023-01-07T07:51:42.113Z,101694.28
2023-01-07T07:54:09.800Z,101694.34
2023-01-07T07:56:37.411Z,101706.47
2023-01-07T07:59:05.117Z,101699.59
2023-01-07T08:01:32.867Z,101695.16
2023-01-07T08:04:00.871Z,101691.72
2023-01-07T08:06:28.467Z,101697.19
2023-01-07T08:08:56.115Z,101695.56
2023-01-07T08:11:23.799Z,101690.53
2023-01-07T08:13:51.455Z,101688.22
2023-01-07T08:16:19.168Z,101688.78
2023-01-07T08:18:47.168Z,101689.41
2023-01-07T08:21:16.988Z,101691.06
2023-01-07T08:23:44.669Z,101690.25
2023-01-07T08:26:12.316Z,101689.97
2023-01-07T08:28:39.954Z,101691.78
2023-01-07T08:31:08.586Z,101702.75
2023-01-07T08:33:38.720Z,101703.19
2023-01-07T08:36:18.051Z,101709.53
2023-01-07T08:38:59.821Z,101711.16
2023-01-07T08:41:27.431Z,101703.25
2023-01-07T08:43:55.022Z,101712.00
2023-01-07T08:46:22.642Z,101709.88
2023-01-07T08:48:50.221Z,101704.69
2023-01-07T08:51:17.850Z,101707.81
2023-01-07T08:53:45.927Z,101702.72
2023-01-07T08:56:13.576Z,101705.44
2023-01-07T08:58:41.353Z,101709.81
2023-01-07T09:01:09.316Z,101708.94
2023-01-07T09:03:36.980Z,101707.84
2023-01-07T09:06:04.710Z,101711.41
2023-01-07T09:08:32.483Z,101708.88
2023-01-07T09:11:00.078Z,101712.72
2023-01-07T09:13:27.728Z,101709.88
2023-01-07T09:15:55.311Z,101710.81
2023-01-07T09:18:22.997Z,101712.56
2023-01-07T09:20:50.587Z,101712.81
2023-01-07T09:23:43.244Z,101726.25
2023-01-07T09:26:10.783Z,101718.69
2023-01-07T09:28:38.260Z,101719.44
2023-01-07T09:31:07.211Z,101712.00
2023-01-07T09:33:35.056Z,101721.78
2023-01-07T09:36:02.673Z,101712.16
2023-01-07T09:38:30.312Z,101718.31
2023-01-07T09:40:58.093Z,101722.06
2023-01-07T09:44:00.005Z,101712.50
2023-01-07T09:46:22.052Z,101715.31
2023-01-07T09:49:01.136Z,101718.88
2023-01-07T09:51:38.348Z,101711.69
2023-01-07T09:54:17.499Z,101709.78
2023-01-07T09:56:46.661Z,101713.56
2023-01-07T09:59:14.921Z,101705.88
2023-01-07T10:02:04.854Z,101710.03
2023-01-07T10:04:50.907Z,101711.88
2023-01-07T10:07:40.183Z,101704.09
2023-01-07T10:10:30.682Z,101705.50
2023-01-07T10:13:26.397Z,101714.16
2023-01-07T10:16:11.994Z,101704.00
2023-01-07T10:19:14.308Z,101688.88
2023-01-07T10:21:47.538Z,101685.47
2023-01-07T10:24:32.196Z,101682.69
2023-01-07T10:27:10.144Z,101678.72
2023-01-07T10:29:49.061Z,101684.28
2023-01-07T10:32:19.632Z,101689.63
2023-01-07T10:34:58.204Z,101678.13
2023-01-07T10:37:41.779Z,101674.50
2023-01-07T10:40:42.022Z,101671.88
2023-01-07T10:46:58.615Z,101666.22
2023-01-07T10:49:39.784Z,101658.78
2023-01-07T11:01:21.471Z,101640.66
2023-01-07T11:03:54.469Z,101637.97
2023-01-07T11:06:40.993Z,101635.22
2023-01-07T11:09:13.960Z,101633.19
2023-01-07T11:11:42.423Z,101629.03
2023-01-07T11:14:25.080Z,101633.66
2023-01-07T11:17:06.872Z,101624.72
2023-01-07T11:19:45.445Z,101624.66
2023-01-07T11:22:25.528Z,101632.69
2023-01-07T11:24:54.920Z,101613.19
2023-01-07T11:27:26.064Z,101606.53
2023-01-07T11:30:20.267Z,101597.72
2023-01-07T11:32:59.471Z,101600.56
2023-01-07T11:35:30.763Z,101600.19
2023-01-07T11:37:59.865Z,101598.34
2023-01-07T11:40:33.147Z,101595.59
2023-01-07T11:43:03.213Z,101592.69
2023-01-07T11:46:19.282Z,101591.22
2023-01-07T11:48:38.622Z,101591.78
2023-01-07T11:51:10.870Z,101579.13
2023-01-07T11:53:52.067Z,101575.97
2023-01-07T11:56:34.903Z,101566.44
2023-01-07T11:59:29.586Z,101562.31
2023-01-07T12:02:01.679Z,101565.44
2023-01-07T12:04:36.691Z,101558.09
2023-01-07T12:07:08.082Z,101547.88
2023-01-07T12:09:38.828Z,101552.56
2023-01-07T12:12:31.823Z,101549.09
2023-01-07T12:15:26.203Z,101547.97
2023-01-07T12:18:26.949Z,101548.97
2023-01-07T12:21:35.754Z,101542.19
2023-01-07T12:24:17.814Z,101539.41
2023-01-07T12:27:03.479Z,101535.84
2023-01-07T12:29:40.132Z,101533.81
2023-01-07T12:32:28.136Z,101528.50
2023-01-07T12:35:16.220Z,101520.44
2023-01-07T12:38:09.530Z,101530.06
2023-01-07T12:40:57.500Z,101531.22
2023-01-07T12:44:33.599Z,101513.75
2023-01-07T12:47:35.339Z,101509.34
2023-01-07T12:50:26.325Z,101509.97
2023-01-07T12:53:55.742Z,101512.72
2023-01-07T12:56:33.384Z,101502.81
2023-01-07T12:59:10.028Z,101516.66
2023-01-07T13:02:14.368Z,101498.59
2023-01-07T13:05:03.607Z,101502.44
2023-01-07T13:07:54.059Z,101499.81
2023-01-07T13:10:35.737Z,101502.44
2023-01-07T13:13:14.846Z,101490.88
2023-01-07T13:15:42.944Z,101492.59
2023-01-07T13:18:10.603Z,101501.53
2023-01-07T13:21:06.935Z,101490.25
2023-01-07T13:23:43.475Z,101490.19
2023-01-07T13:26:25.586Z,101493.56
2023-01-07T13:29:06.005Z,101473.47
2023-01-07T13:32:01.295Z,101482.25
2023-01-07T13:35:14.948Z,101477.97
2023-01-07T13:38:12.219Z,101480.50
2023-01-07T13:41:23.037Z,101471.03
2023-01-07T13:48:11.806Z,101476.13
2023-01-07T13:51:57.427Z,101472.31
2023-01-07T13:54:49.519Z,101472.63
2023-01-07T13:57:50.290Z,101470.56
2023-01-07T14:07:04.283Z,101473.13
2023-01-07T14:09:00.603Z,101466.94
2023-01-07T14:28:15.473Z,101472.22
2023-01-07T14:31:37.696Z,101479.31
2023-01-07T14:35:22.959Z,101484.34
2023-01-07T14:38:18.550Z,101479.00
2023-01-07T14:42:29.413Z,101485.94
2023-01-07T14:46:04.413Z,101486.88
2023-01-07T14:49:14.870Z,101485.78
2023-01-07T14:52:18.892Z,101494.56
2023-01-07T14:56:52.886Z,101494.66
2023-01-07T15:00:30.462Z,101486.69
2023-01-07T15:03:33.961Z,101477.19
2023-01-07T15:06:59.897Z,101476.34
2023-01-07T15:11:51.671Z,101467.03
2023-01-07T15:14:47.257Z,101472.75
2023-01-07T15:17:24.344Z,101475.25
2023-01-07T15:29:01.655Z,101466.41
2023-01-07T15:32:10.358Z,101471.81
2023-01-07T15:34:44.146Z,101464.41
2023-01-07T15:37:17.131Z,101465.25
2023-01-07T15:44:25.518Z,101457.06
2023-01-07T15:46:54.073Z,101460.16
2023-01-07T15:49:23.230Z,101463.38
2023-01-07T15:52:45.266Z,101455.69
2023-01-07T15:55:23.512Z,101456.38
2023-01-07T15:57:55.136Z,101455.63
2023-01-07T16:00:23.317Z,101442.78
2023-01-07T16:02:51.590Z,101448.69
2023-01-07T16:05:19.851Z,101449.63
2023-01-07T16:07:53.954Z,101459.75
2023-01-07T16:10:30.676Z,101454.75
2023-01-07T16:13:04.289Z,101452.22
2023-01-07T16:15:33.561Z,101469.84
2023-01-07T16:18:03.752Z,101462.00
2023-01-07T16:20:38.907Z,101468.53
2023-01-07T16:23:09.285Z,101462.31
2023-01-07T16:26:04.885Z,101456.03
2023-01-07T16:28:57.080Z,101460.38
2023-01-07T16:31:28.208Z,101462.44
2023-01-07T16:33:59.270Z,101458.16
2023-01-07T16:36:31.971Z,101465.13
2023-01-07T16:39:07.692Z,101459.13
2023-01-07T16:41:35.494Z,101453.81
2023-01-07T16:44:03.257Z,101452.25
2023-01-07T16:46:36.561Z,101461.75
2023-01-07T16:49:19.475Z,101461.50
2023-01-07T16:52:04.512Z,101454.63
2023-01-07T16:54:43.167Z,101451.78
2023-01-07T16:57:10.763Z,101443.94
2023-01-07T16:59:49.797Z,101454.50
2023-01-07T17:02:17.464Z,101450.13
2023-01-07T17:04:47.007Z,101444.72
2023-01-07T17:07:21.879Z,101447.50
2023-01-07T17:09:53.849Z,101440.56
2023-01-07T17:12:36.990Z,101450.19
2023-01-07T17:15:32.289Z,101446.69
2023-01-07T17:18:12.553Z,101450.13
2023-01-07T17:20:48.919Z,101444.06
2023-01-07T17:23:25.359Z,101448.47
2023-01-07T17:26:11.023Z,101449.50
2023-01-07T17:29:09.604Z,101448.94
2023-01-07T17:31:40.049Z,101460.16
2023-01-07T17:34:11.545Z,101446.50
2023-01-07T17:36:39.602Z,101452.78
2023-01-07T17:39:07.431Z,101446.72
2023-01-07T17:41:55.421Z,101452.72
2023-01-07T17:44:23.218Z,101446.53
2023-01-07T17:46:54.604Z,101452.88
2023-01-07T17:49:32.613Z,101446.91
2023-01-07T17:52:00.358Z,101459.09
2023-01-07T17:54:28.085Z,101451.09
2023-01-07T17:56:56.231Z,101452.66
2023-01-07T17:59:24.247Z,101459.06
2023-01-07T18:01:53.457Z,101448.38
2023-01-07T18:04:21.961Z,101452.75
2023-01-07T18:06:49.696Z,101459.78
2023-01-07T18:09:17.263Z,101453.63
2023-01-07T18:12:05.309Z,101451.13
2023-01-07T18:14:33.562Z,101458.00
2023-01-07T18:17:01.206Z,101457.16
2023-01-07T18:19:28.671Z,101449.94
2023-01-07T18:21:56.344Z,101447.19
2023-01-07T18:24:24.160Z,101454.03
2023-01-07T18:26:51.679Z,101454.22
2023-01-07T18:29:19.227Z,101454.38
2023-01-07T18:31:46.932Z,101448.16
2023-01-07T18:34:15.547Z,101452.75
2023-01-07T18:36:43.469Z,101446.50
2023-01-07T18:39:19.028Z,101459.69
2023-01-07T18:41:50.187Z,101444.75
2023-01-07T18:44:19.585Z,101457.13
2023-01-07T18:46:47.413Z,101458.59
2023-01-07T18:49:15.153Z,101450.91
2023-01-07T18:51:42.710Z,101455.38
2023-01-07T18:54:20.832Z,101449.13
2023-01-07T18:58:35.888Z,101453.75
2023-01-07T19:01:12.698Z,101443.88
2023-01-07T19:05:16.471Z,101439.34
2023-01-07T19:07:36.269Z,101438.72
2023-01-07T19:10:17.975Z,101437.69
2023-01-07T19:12:50.734Z,101434.19
2023-01-07T19:15:20.847Z,101437.91
2023-01-07T19:17:50.621Z,101437.94
2023-01-07T19:20:18.404Z,101437.16
2023-01-07T19:22:48.389Z,101435.44
2023-01-07T19:25:17.247Z,101445.16
2023-01-07T19:27:45.054Z,101438.09
2023-01-07T19:31:11.524Z,101428.41
2023-01-07T19:33:46.061Z,101431.78
2023-01-07T19:36:36.660Z,101426.78
2023-01-07T19:39:42.387Z,101412.84
2023-01-07T20:36:18.178Z,101417.44
2023-01-07T20:39:20.985Z,101431.50
2023-01-07T20:42:12.541Z,101429.66
2023-01-07T20:45:06.169Z,101423.38
2023-01-07T20:48:57.553Z,101416.53
2023-01-07T20:58:19.332Z,101411.31
2023-01-07T21:00:40.352Z,101417.34
2023-01-07T21:03:22.949Z,101412.66
2023-01-07T21:06:28.791Z,101407.63
2023-01-07T21:09:18.917Z,101407.72
2023-01-07T21:19:07.546Z,101399.97
2023-01-07T21:21:40.707Z,101392.75
2023-01-07T21:24:24.223Z,101389.22
2023-01-07T21:27:07.384Z,101396.06
2023-01-07T21:29:40.696Z,101399.47
2023-01-07T21:32:15.518Z,101385.66
2023-01-07T21:34:46.861Z,101386.91
2023-01-07T21:37:15.911Z,101379.66
2023-01-07T21:39:43.752Z,101384.91
2023-01-07T21:42:14.172Z,101387.53
2023-01-07T21:44:43.959Z,101379.56
2023-01-07T21:47:11.688Z,101371.72
2023-01-07T21:49:39.528Z,101370.06
2023-01-07T21:52:20.453Z,101368.41
2023-01-07T21:54:57.010Z,101373.56
2023-01-07T21:57:40.535Z,101358.84
2023-01-07T22:00:16.212Z,101369.75
2023-01-07T22:02:51.044Z,101373.38
2023-01-07T22:05:28.174Z,101366.38
2023-01-07T22:08:09.434Z,101379.81
2023-01-07T22:11:29.698Z,101373.41
2023-01-07T22:14:23.092Z,101367.13
2023-01-07T22:17:17.384Z,101368.88
2023-01-07T22:23:56.302Z,101366.16
2023-01-07T22:26:26.916Z,101364.03
2023-01-07T22:29:30.891Z,101371.03
2023-01-07T22:32:10.278Z,101365.78
2023-01-07T22:34:49.697Z,101371.16
2023-01-07T22:37:24.327Z,101359.34
2023-01-07T22:40:10.790Z,101374.16
2023-01-07T22:42:53.252Z,101376.81
2023-01-07T22:45:39.861Z,101365.69
2023-01-07T22:48:14.676Z,101361.28
2023-01-07T22:50:42.548Z,101362.16
2023-01-07T22:53:22.375Z,101351.69
2023-01-07T22:55:55.497Z,101358.50
2023-01-07T22:58:23.292Z,101344.78
2023-01-07T23:00:51.547Z,101339.66
2023-01-07T23:03:27.929Z,101328.16
2023-01-07T23:05:58.188Z,101333.34
2023-01-07T23:08:26.041Z,101335.81
2023-01-07T23:10:53.926Z,101329.72
2023-01-07T23:13:22.252Z,101327.88
2023-01-07T23:15:50.058Z,101318.06
2023-01-07T23:18:20.172Z,101328.84
2023-01-07T23:20:48.982Z,101326.19
2023-01-07T23:23:19.169Z,101319.91
2023-01-07T23:25:51.506Z,101312.03
2023-01-07T23:28:21.769Z,101313.78
2023-01-07T23:30:52.359Z,101312.25
2023-01-07T23:33:22.058Z,101306.34
2023-01-07T23:35:54.231Z,101295.63
2023-01-07T23:38:25.183Z,101301.69
2023-01-07T23:41:03.192Z,101286.81
2023-01-07T23:43:49.797Z,101283.19
2023-01-07T23:46:20.274Z,101270.09
2023-01-07T23:48:54.882Z,101277.97
2023-01-07T23:51:25.065Z,101296.34
2023-01-07T23:54:06.073Z,101276.22
2023-01-07T23:56:55.487Z,101274.97
2023-01-07T23:59:45.759Z,101291.00
